sensor_id;sensor_type;location;lat;lon;timestamp;P1;durP1;ratioP1;P2;durP2;ratioP2
26407;SDS011;14583;43.604;1.364;2023-07-31T00:00:28;12.27;;;5.68;;
26407;SDS011;14583;43.604;1.364;2023-07-31T00:02:54;12.13;;;6.43;;
26407;SDS011;14583;43.604;1.364;2023-07-31T00:05:20;11.75;;;5.90;;
26407;SDS011;14583;43.604;1.364;2023-07-31T00:07:45;12.05;;;5.40;;
26407;SDS011;14583;43.604;1.364;2023-07-31T00:10:11;10.30;;;5.03;;
26407;SDS011;14583;43.604;1.364;2023-07-31T00:12:41;15.70;;;5.45;;
26407;SDS011;14583;43.604;1.364;2023-07-31T00:15:08;10.23;;;4.85;;
26407;SDS011;14583;43.604;1.364;2023-07-31T00:17:34;11.02;;;4.28;;
26407;SDS011;14583;43.604;1.364;2023-07-31T00:20:00;8.85;;;5.00;;
26407;SDS011;14583;43.604;1.364;2023-07-31T00:22:25;9.50;;;4.50;;
26407;SDS011;14583;43.604;1.364;2023-07-31T00:24:51;13.98;;;5.82;;
26407;SDS011;14583;43.604;1.364;2023-07-31T00:27:17;10.18;;;4.40;;
26407;SDS011;14583;43.604;1.364;2023-07-31T00:29:42;14.60;;;4.68;;
26407;SDS011;14583;43.604;1.364;2023-07-31T00:32:08;11.32;;;4.45;;
26407;SDS011;14583;43.604;1.364;2023-07-31T00:34:34;9.75;;;4.35;;
26407;SDS011;14583;43.604;1.364;2023-07-31T00:36:59;11.32;;;4.90;;
26407;SDS011;14583;43.604;1.364;2023-07-31T00:39:25;8.82;;;4.78;;
26407;SDS011;14583;43.604;1.364;2023-07-31T00:41:51;8.20;;;4.22;;
26407;SDS011;14583;43.604;1.364;2023-07-31T00:44:17;11.55;;;5.40;;
26407;SDS011;14583;43.604;1.364;2023-07-31T00:46:42;10.57;;;4.80;;
26407;SDS011;14583;43.604;1.364;2023-07-31T00:49:09;9.07;;;4.47;;
26407;SDS011;14583;43.604;1.364;2023-07-31T00:51:36;9.40;;;4.72;;
26407;SDS011;14583;43.604;1.364;2023-07-31T00:54:02;10.20;;;4.82;;
26407;SDS011;14583;43.604;1.364;2023-07-31T00:56:28;12.30;;;4.85;;
26407;SDS011;14583;43.604;1.364;2023-07-31T00:58:54;8.63;;;4.60;;
26407;SDS011;14583;43.604;1.364;2023-07-31T01:01:20;13.70;;;4.43;;
26407;SDS011;14583;43.604;1.364;2023-07-31T01:03:49;9.18;;;4.53;;
26407;SDS011;14583;43.604;1.364;2023-07-31T01:11:43;8.32;;;4.68;;
26407;SDS011;14583;43.604;1.364;2023-07-31T01:14:16;10.27;;;5.10;;
26407;SDS011;14583;43.604;1.364;2023-07-31T01:16:42;7.75;;;4.65;;
26407;SDS011;14583;43.604;1.364;2023-07-31T01:19:07;9.95;;;5.35;;
26407;SDS011;14583;43.604;1.364;2023-07-31T01:26:36;7.65;;;5.00;;
26407;SDS011;14583;43.604;1.364;2023-07-31T01:29:06;10.98;;;5.22;;
26407;SDS011;14583;43.604;1.364;2023-07-31T01:31:32;9.93;;;5.20;;
26407;SDS011;14583;43.604;1.364;2023-07-31T01:34:00;13.15;;;4.85;;
26407;SDS011;14583;43.604;1.364;2023-07-31T01:36:27;11.40;;;4.75;;
26407;SDS011;14583;43.604;1.364;2023-07-31T01:39:02;8.43;;;4.78;;
26407;SDS011;14583;43.604;1.364;2023-07-31T01:41:28;10.30;;;5.13;;
26407;SDS011;14583;43.604;1.364;2023-07-31T01:43:54;10.63;;;5.15;;
26407;SDS011;14583;43.604;1.364;2023-07-31T01:46:20;9.10;;;5.68;;
26407;SDS011;14583;43.604;1.364;2023-07-31T01:48:46;13.18;;;5.88;;
26407;SDS011;14583;43.604;1.364;2023-07-31T01:51:12;10.57;;;5.40;;
26407;SDS011;14583;43.604;1.364;2023-07-31T01:53:37;11.07;;;5.57;;
26407;SDS011;14583;43.604;1.364;2023-07-31T01:56:03;9.30;;;4.88;;
26407;SDS011;14583;43.604;1.364;2023-07-31T01:58:29;9.38;;;5.28;;
26407;SDS011;14583;43.604;1.364;2023-07-31T02:00:54;9.43;;;4.85;;
26407;SDS011;14583;43.604;1.364;2023-07-31T02:03:20;13.00;;;5.78;;
26407;SDS011;14583;43.604;1.364;2023-07-31T02:05:46;12.43;;;5.30;;
26407;SDS011;14583;43.604;1.364;2023-07-31T02:08:13;11.00;;;4.70;;
26407;SDS011;14583;43.604;1.364;2023-07-31T02:10:39;8.73;;;5.10;;
26407;SDS011;14583;43.604;1.364;2023-07-31T02:13:04;8.60;;;4.65;;
26407;SDS011;14583;43.604;1.364;2023-07-31T02:15:30;13.70;;;5.20;;
26407;SDS011;14583;43.604;1.364;2023-07-31T02:17:56;10.57;;;4.95;;
26407;SDS011;14583;43.604;1.364;2023-07-31T02:20:22;10.55;;;5.50;;
26407;SDS011;14583;43.604;1.364;2023-07-31T02:22:48;11.23;;;5.05;;
26407;SDS011;14583;43.604;1.364;2023-07-31T02:25:14;11.88;;;4.97;;
26407;SDS011;14583;43.604;1.364;2023-07-31T02:27:39;9.35;;;4.78;;
26407;SDS011;14583;43.604;1.364;2023-07-31T02:30:05;11.73;;;4.90;;
26407;SDS011;14583;43.604;1.364;2023-07-31T02:32:31;11.13;;;4.97;;
26407;SDS011;14583;43.604;1.364;2023-07-31T02:34:57;10.45;;;5.18;;
26407;SDS011;14583;43.604;1.364;2023-07-31T02:37:23;16.02;;;5.30;;
26407;SDS011;14583;43.604;1.364;2023-07-31T02:39:49;12.15;;;5.40;;
26407;SDS011;14583;43.604;1.364;2023-07-31T02:42:14;13.07;;;5.22;;
26407;SDS011;14583;43.604;1.364;2023-07-31T02:44:40;8.80;;;4.60;;
26407;SDS011;14583;43.604;1.364;2023-07-31T02:47:06;12.80;;;5.22;;
26407;SDS011;14583;43.604;1.364;2023-07-31T02:49:31;9.43;;;5.57;;
26407;SDS011;14583;43.604;1.364;2023-07-31T02:51:57;16.15;;;5.10;;
26407;SDS011;14583;43.604;1.364;2023-07-31T02:54:23;10.73;;;5.30;;
26407;SDS011;14583;43.604;1.364;2023-07-31T02:56:49;12.63;;;5.13;;
26407;SDS011;14583;43.604;1.364;2023-07-31T02:59:14;12.88;;;5.60;;
26407;SDS011;14583;43.604;1.364;2023-07-31T03:01:40;12.57;;;5.38;;
26407;SDS011;14583;43.604;1.364;2023-07-31T03:04:05;12.48;;;4.65;;
26407;SDS011;14583;43.604;1.364;2023-07-31T03:06:31;12.32;;;5.90;;
26407;SDS011;14583;43.604;1.364;2023-07-31T03:08:57;13.30;;;5.00;;
26407;SDS011;14583;43.604;1.364;2023-07-31T03:11:23;11.68;;;4.90;;
26407;SDS011;14583;43.604;1.364;2023-07-31T03:13:48;7.72;;;4.63;;
26407;SDS011;14583;43.604;1.364;2023-07-31T03:16:17;11.50;;;4.88;;
26407;SDS011;14583;43.604;1.364;2023-07-31T03:18:43;12.68;;;5.00;;
26407;SDS011;14583;43.604;1.364;2023-07-31T03:21:08;14.40;;;5.20;;
26407;SDS011;14583;43.604;1.364;2023-07-31T03:23:34;10.63;;;5.07;;
26407;SDS011;14583;43.604;1.364;2023-07-31T03:26:01;10.80;;;5.03;;
26407;SDS011;14583;43.604;1.364;2023-07-31T03:28:28;10.63;;;4.80;;
26407;SDS011;14583;43.604;1.364;2023-07-31T03:30:54;11.40;;;5.25;;
26407;SDS011;14583;43.604;1.364;2023-07-31T03:33:20;11.40;;;4.85;;
26407;SDS011;14583;43.604;1.364;2023-07-31T03:35:46;11.50;;;5.00;;
26407;SDS011;14583;43.604;1.364;2023-07-31T03:38:12;11.50;;;5.78;;
26407;SDS011;14583;43.604;1.364;2023-07-31T03:40:38;14.77;;;4.65;;
26407;SDS011;14583;43.604;1.364;2023-07-31T03:43:04;12.43;;;5.10;;
26407;SDS011;14583;43.604;1.364;2023-07-31T03:45:30;11.70;;;5.00;;
26407;SDS011;14583;43.604;1.364;2023-07-31T03:47:56;9.73;;;5.22;;
26407;SDS011;14583;43.604;1.364;2023-07-31T03:50:22;8.10;;;4.78;;
26407;SDS011;14583;43.604;1.364;2023-07-31T03:52:50;11.00;;;4.82;;
26407;SDS011;14583;43.604;1.364;2023-07-31T03:55:15;12.13;;;5.57;;
26407;SDS011;14583;43.604;1.364;2023-07-31T03:57:41;11.38;;;5.22;;
26407;SDS011;14583;43.604;1.364;2023-07-31T04:00:07;10.50;;;4.80;;
26407;SDS011;14583;43.604;1.364;2023-07-31T04:02:33;12.65;;;5.57;;
26407;SDS011;14583;43.604;1.364;2023-07-31T04:04:58;25.48;;;6.63;;
26407;SDS011;14583;43.604;1.364;2023-07-31T04:07:24;15.05;;;5.65;;
26407;SDS011;14583;43.604;1.364;2023-07-31T04:09:50;13.45;;;4.72;;
26407;SDS011;14583;43.604;1.364;2023-07-31T04:12:15;13.55;;;5.32;;
26407;SDS011;14583;43.604;1.364;2023-07-31T04:14:41;9.35;;;5.05;;
26407;SDS011;14583;43.604;1.364;2023-07-31T04:17:07;13.60;;;5.70;;
26407;SDS011;14583;43.604;1.364;2023-07-31T04:19:32;14.80;;;5.40;;
26407;SDS011;14583;43.604;1.364;2023-07-31T04:21:58;10.10;;;4.78;;
26407;SDS011;14583;43.604;1.364;2023-07-31T04:24:23;13.85;;;5.47;;
26407;SDS011;14583;43.604;1.364;2023-07-31T04:26:50;8.18;;;4.88;;
26407;SDS011;14583;43.604;1.364;2023-07-31T04:29:16;11.88;;;4.97;;
26407;SDS011;14583;43.604;1.364;2023-07-31T04:31:42;13.07;;;5.10;;
26407;SDS011;14583;43.604;1.364;2023-07-31T04:34:07;13.25;;;5.35;;
26407;SDS011;14583;43.604;1.364;2023-07-31T04:36:33;13.82;;;5.55;;
26407;SDS011;14583;43.604;1.364;2023-07-31T04:38:59;11.30;;;4.90;;
26407;SDS011;14583;43.604;1.364;2023-07-31T04:41:25;14.43;;;4.55;;
26407;SDS011;14583;43.604;1.364;2023-07-31T04:43:51;8.88;;;4.70;;
26407;SDS011;14583;43.604;1.364;2023-07-31T04:46:17;11.77;;;5.00;;
26407;SDS011;14583;43.604;1.364;2023-07-31T04:48:43;12.48;;;5.32;;
26407;SDS011;14583;43.604;1.364;2023-07-31T04:51:08;18.60;;;8.23;;
26407;SDS011;14583;43.604;1.364;2023-07-31T04:53:35;9.57;;;5.47;;
26407;SDS011;14583;43.604;1.364;2023-07-31T04:56:01;8.63;;;4.47;;
26407;SDS011;14583;43.604;1.364;2023-07-31T04:58:27;10.70;;;5.78;;
26407;SDS011;14583;43.604;1.364;2023-07-31T05:00:53;11.93;;;5.50;;
26407;SDS011;14583;43.604;1.364;2023-07-31T05:03:18;13.65;;;4.82;;
26407;SDS011;14583;43.604;1.364;2023-07-31T05:05:44;14.00;;;5.82;;
26407;SDS011;14583;43.604;1.364;2023-07-31T05:08:10;9.55;;;4.95;;
26407;SDS011;14583;43.604;1.364;2023-07-31T05:10:35;13.77;;;5.28;;
26407;SDS011;14583;43.604;1.364;2023-07-31T05:13:01;14.65;;;5.70;;
26407;SDS011;14583;43.604;1.364;2023-07-31T05:15:28;14.20;;;5.70;;
26407;SDS011;14583;43.604;1.364;2023-07-31T05:17:53;12.52;;;5.28;;
26407;SDS011;14583;43.604;1.364;2023-07-31T05:20:20;12.10;;;5.00;;
26407;SDS011;14583;43.604;1.364;2023-07-31T05:22:46;13.23;;;5.25;;
26407;SDS011;14583;43.604;1.364;2023-07-31T05:25:11;13.90;;;5.70;;
26407;SDS011;14583;43.604;1.364;2023-07-31T05:27:37;15.13;;;4.82;;
26407;SDS011;14583;43.604;1.364;2023-07-31T05:30:04;13.85;;;5.35;;
26407;SDS011;14583;43.604;1.364;2023-07-31T05:32:30;14.68;;;5.95;;
26407;SDS011;14583;43.604;1.364;2023-07-31T05:34:56;14.00;;;5.03;;
26407;SDS011;14583;43.604;1.364;2023-07-31T05:37:22;15.23;;;5.55;;
26407;SDS011;14583;43.604;1.364;2023-07-31T05:39:47;21.33;;;5.82;;
26407;SDS011;14583;43.604;1.364;2023-07-31T05:42:13;17.75;;;5.63;;
26407;SDS011;14583;43.604;1.364;2023-07-31T05:44:39;9.93;;;4.68;;
26407;SDS011;14583;43.604;1.364;2023-07-31T05:47:05;13.52;;;5.20;;
26407;SDS011;14583;43.604;1.364;2023-07-31T05:49:30;14.48;;;5.50;;
26407;SDS011;14583;43.604;1.364;2023-07-31T05:51:56;18.10;;;6.82;;
26407;SDS011;14583;43.604;1.364;2023-07-31T05:54:22;14.50;;;5.28;;
26407;SDS011;14583;43.604;1.364;2023-07-31T05:56:47;15.50;;;5.15;;
26407;SDS011;14583;43.604;1.364;2023-07-31T05:59:13;9.43;;;5.28;;
26407;SDS011;14583;43.604;1.364;2023-07-31T06:01:39;18.92;;;5.60;;
26407;SDS011;14583;43.604;1.364;2023-07-31T06:04:05;11.80;;;4.95;;
26407;SDS011;14583;43.604;1.364;2023-07-31T06:06:30;13.68;;;5.45;;
26407;SDS011;14583;43.604;1.364;2023-07-31T06:08:56;21.02;;;5.50;;
26407;SDS011;14583;43.604;1.364;2023-07-31T06:11:22;14.00;;;5.07;;
26407;SDS011;14583;43.604;1.364;2023-07-31T06:13:48;15.48;;;5.55;;
26407;SDS011;14583;43.604;1.364;2023-07-31T06:16:15;13.15;;;4.70;;
26407;SDS011;14583;43.604;1.364;2023-07-31T06:18:41;9.82;;;4.82;;
26407;SDS011;14583;43.604;1.364;2023-07-31T06:21:16;15.63;;;5.68;;
26407;SDS011;14583;43.604;1.364;2023-07-31T06:23:42;16.95;;;5.32;;
26407;SDS011;14583;43.604;1.364;2023-07-31T06:26:08;10.85;;;5.03;;
26407;SDS011;14583;43.604;1.364;2023-07-31T06:28:34;12.68;;;5.22;;
26407;SDS011;14583;43.604;1.364;2023-07-31T06:31:00;13.85;;;4.90;;
26407;SDS011;14583;43.604;1.364;2023-07-31T06:33:26;14.05;;;5.72;;
26407;SDS011;14583;43.604;1.364;2023-07-31T06:35:52;15.13;;;5.63;;
26407;SDS011;14583;43.604;1.364;2023-07-31T06:38:21;12.48;;;4.75;;
26407;SDS011;14583;43.604;1.364;2023-07-31T06:40:49;15.23;;;4.90;;
26407;SDS011;14583;43.604;1.364;2023-07-31T06:43:14;10.75;;;5.13;;
26407;SDS011;14583;43.604;1.364;2023-07-31T06:45:40;15.00;;;5.10;;
26407;SDS011;14583;43.604;1.364;2023-07-31T06:48:06;14.23;;;5.18;;
26407;SDS011;14583;43.604;1.364;2023-07-31T06:50:34;11.05;;;4.00;;
26407;SDS011;14583;43.604;1.364;2023-07-31T06:53:00;12.25;;;4.93;;
26407;SDS011;14583;43.604;1.364;2023-07-31T06:55:26;16.23;;;4.80;;
26407;SDS011;14583;43.604;1.364;2023-07-31T06:57:53;14.10;;;5.30;;
26407;SDS011;14583;43.604;1.364;2023-07-31T07:00:19;14.18;;;5.03;;
26407;SDS011;14583;43.604;1.364;2023-07-31T07:02:46;11.20;;;5.03;;
26407;SDS011;14583;43.604;1.364;2023-07-31T07:05:13;14.02;;;5.05;;
26407;SDS011;14583;43.604;1.364;2023-07-31T07:07:39;13.32;;;5.25;;
26407;SDS011;14583;43.604;1.364;2023-07-31T07:10:05;15.02;;;5.20;;
26407;SDS011;14583;43.604;1.364;2023-07-31T07:12:31;11.98;;;4.70;;
26407;SDS011;14583;43.604;1.364;2023-07-31T07:14:58;12.80;;;4.80;;
26407;SDS011;14583;43.604;1.364;2023-07-31T07:17:28;16.83;;;5.93;;
26407;SDS011;14583;43.604;1.364;2023-07-31T07:19:57;10.68;;;4.70;;
26407;SDS011;14583;43.604;1.364;2023-07-31T07:22:23;11.70;;;4.50;;
26407;SDS011;14583;43.604;1.364;2023-07-31T07:24:49;15.98;;;5.63;;
26407;SDS011;14583;43.604;1.364;2023-07-31T07:27:15;12.25;;;4.90;;
26407;SDS011;14583;43.604;1.364;2023-07-31T07:29:41;12.15;;;5.35;;
26407;SDS011;14583;43.604;1.364;2023-07-31T07:32:07;7.70;;;4.25;;
26407;SDS011;14583;43.604;1.364;2023-07-31T07:34:33;14.02;;;5.22;;
26407;SDS011;14583;43.604;1.364;2023-07-31T07:36:58;18.40;;;5.03;;
26407;SDS011;14583;43.604;1.364;2023-07-31T07:39:24;11.98;;;5.07;;
26407;SDS011;14583;43.604;1.364;2023-07-31T07:41:50;16.85;;;5.10;;
26407;SDS011;14583;43.604;1.364;2023-07-31T07:44:15;18.65;;;5.78;;
26407;SDS011;14583;43.604;1.364;2023-07-31T07:46:41;12.68;;;5.07;;
26407;SDS011;14583;43.604;1.364;2023-07-31T07:49:07;12.93;;;5.00;;
26407;SDS011;14583;43.604;1.364;2023-07-31T07:51:33;13.02;;;4.82;;
26407;SDS011;14583;43.604;1.364;2023-07-31T07:53:58;13.32;;;5.03;;
26407;SDS011;14583;43.604;1.364;2023-07-31T07:56:27;13.65;;;5.07;;
26407;SDS011;14583;43.604;1.364;2023-07-31T07:58:53;11.48;;;4.60;;
26407;SDS011;14583;43.604;1.364;2023-07-31T08:01:19;10.15;;;4.50;;
26407;SDS011;14583;43.604;1.364;2023-07-31T08:03:46;15.63;;;5.20;;
26407;SDS011;14583;43.604;1.364;2023-07-31T08:06:12;8.70;;;4.63;;
26407;SDS011;14583;43.604;1.364;2023-07-31T08:08:39;17.17;;;5.05;;
26407;SDS011;14583;43.604;1.364;2023-07-31T08:11:04;16.95;;;5.38;;
26407;SDS011;14583;43.604;1.364;2023-07-31T08:13:30;16.80;;;5.05;;
26407;SDS011;14583;43.604;1.364;2023-07-31T08:15:56;15.27;;;4.70;;
26407;SDS011;14583;43.604;1.364;2023-07-31T08:18:22;12.68;;;5.30;;
26407;SDS011;14583;43.604;1.364;2023-07-31T08:20:48;14.27;;;4.75;;
26407;SDS011;14583;43.604;1.364;2023-07-31T08:23:14;14.43;;;4.97;;
26407;SDS011;14583;43.604;1.364;2023-07-31T08:25:39;15.90;;;4.82;;
26407;SDS011;14583;43.604;1.364;2023-07-31T08:28:05;12.63;;;4.57;;
26407;SDS011;14583;43.604;1.364;2023-07-31T08:30:31;12.95;;;4.57;;
26407;SDS011;14583;43.604;1.364;2023-07-31T08:32:58;11.93;;;5.00;;
26407;SDS011;14583;43.604;1.364;2023-07-31T08:35:24;11.85;;;4.43;;
26407;SDS011;14583;43.604;1.364;2023-07-31T08:37:50;11.18;;;4.43;;
26407;SDS011;14583;43.604;1.364;2023-07-31T08:40:16;7.13;;;3.80;;
26407;SDS011;14583;43.604;1.364;2023-07-31T08:42:48;11.98;;;4.15;;
26407;SDS011;14583;43.604;1.364;2023-07-31T08:45:16;9.80;;;3.97;;
26407;SDS011;14583;43.604;1.364;2023-07-31T08:47:50;8.63;;;4.10;;
26407;SDS011;14583;43.604;1.364;2023-07-31T08:50:17;11.32;;;4.15;;
26407;SDS011;14583;43.604;1.364;2023-07-31T08:52:50;7.53;;;3.80;;
26407;SDS011;14583;43.604;1.364;2023-07-31T08:55:17;7.97;;;3.85;;
26407;SDS011;14583;43.604;1.364;2023-07-31T08:57:43;8.75;;;3.80;;
26407;SDS011;14583;43.604;1.364;2023-07-31T09:00:10;7.93;;;3.80;;
26407;SDS011;14583;43.604;1.364;2023-07-31T09:02:46;7.97;;;4.20;;
26407;SDS011;14583;43.604;1.364;2023-07-31T09:05:17;9.65;;;4.05;;
26407;SDS011;14583;43.604;1.364;2023-07-31T09:07:45;9.85;;;3.60;;
26407;SDS011;14583;43.604;1.364;2023-07-31T09:10:12;13.00;;;3.80;;
26407;SDS011;14583;43.604;1.364;2023-07-31T09:12:38;11.70;;;3.92;;
26407;SDS011;14583;43.604;1.364;2023-07-31T09:15:05;9.52;;;3.28;;
26407;SDS011;14583;43.604;1.364;2023-07-31T09:17:35;10.90;;;3.30;;
26407;SDS011;14583;43.604;1.364;2023-07-31T09:20:22;8.02;;;3.40;;
26407;SDS011;14583;43.604;1.364;2023-07-31T09:22:50;4.63;;;2.75;;
26407;SDS011;14583;43.604;1.364;2023-07-31T09:25:17;7.40;;;3.28;;
26407;SDS011;14583;43.604;1.364;2023-07-31T09:27:57;6.78;;;2.90;;
26407;SDS011;14583;43.604;1.364;2023-07-31T09:30:24;5.15;;;2.72;;
26407;SDS011;14583;43.604;1.364;2023-07-31T09:32:50;6.28;;;3.40;;
26407;SDS011;14583;43.604;1.364;2023-07-31T09:35:20;5.50;;;2.80;;
26407;SDS011;14583;43.604;1.364;2023-07-31T09:37:51;9.98;;;3.30;;
26407;SDS011;14583;43.604;1.364;2023-07-31T09:40:33;6.63;;;2.72;;
26407;SDS011;14583;43.604;1.364;2023-07-31T09:43:05;6.05;;;2.83;;
26407;SDS011;14583;43.604;1.364;2023-07-31T09:45:39;7.07;;;3.15;;
26407;SDS011;14583;43.604;1.364;2023-07-31T09:48:07;7.80;;;3.33;;
26407;SDS011;14583;43.604;1.364;2023-07-31T09:50:34;6.38;;;3.13;;
26407;SDS011;14583;43.604;1.364;2023-07-31T09:53:06;8.60;;;3.50;;
26407;SDS011;14583;43.604;1.364;2023-07-31T09:55:33;6.60;;;2.83;;
26407;SDS011;14583;43.604;1.364;2023-07-31T09:57:59;9.38;;;3.00;;
26407;SDS011;14583;43.604;1.364;2023-07-31T10:00:26;7.88;;;3.50;;
26407;SDS011;14583;43.604;1.364;2023-07-31T10:02:53;7.15;;;3.25;;
26407;SDS011;14583;43.604;1.364;2023-07-31T10:05:22;7.97;;;3.67;;
26407;SDS011;14583;43.604;1.364;2023-07-31T10:07:53;10.65;;;3.65;;
26407;SDS011;14583;43.604;1.364;2023-07-31T10:10:21;9.77;;;3.72;;
26407;SDS011;14583;43.604;1.364;2023-07-31T10:12:50;7.95;;;3.17;;
26407;SDS011;14583;43.604;1.364;2023-07-31T10:15:18;9.60;;;3.53;;
26407;SDS011;14583;43.604;1.364;2023-07-31T10:17:44;7.93;;;3.25;;
26407;SDS011;14583;43.604;1.364;2023-07-31T10:20:12;9.63;;;3.35;;
26407;SDS011;14583;43.604;1.364;2023-07-31T10:22:41;7.68;;;3.20;;
26407;SDS011;14583;43.604;1.364;2023-07-31T10:25:08;7.53;;;2.92;;
26407;SDS011;14583;43.604;1.364;2023-07-31T10:27:43;4.63;;;2.70;;
26407;SDS011;14583;43.604;1.364;2023-07-31T10:30:12;6.85;;;2.88;;
26407;SDS011;14583;43.604;1.364;2023-07-31T10:32:41;9.02;;;3.35;;
26407;SDS011;14583;43.604;1.364;2023-07-31T10:35:08;5.82;;;2.72;;
26407;SDS011;14583;43.604;1.364;2023-07-31T10:37:41;6.10;;;2.92;;
26407;SDS011;14583;43.604;1.364;2023-07-31T10:40:12;11.18;;;3.55;;
26407;SDS011;14583;43.604;1.364;2023-07-31T10:45:37;7.70;;;3.30;;
26407;SDS011;14583;43.604;1.364;2023-07-31T10:50:32;7.53;;;2.83;;
26407;SDS011;14583;43.604;1.364;2023-07-31T10:53:02;5.65;;;2.83;;
26407;SDS011;14583;43.604;1.364;2023-07-31T10:58:05;6.30;;;3.17;;
26407;SDS011;14583;43.604;1.364;2023-07-31T11:00:39;5.65;;;3.15;;
26407;SDS011;14583;43.604;1.364;2023-07-31T11:03:19;5.70;;;2.90;;
26407;SDS011;14583;43.604;1.364;2023-07-31T11:05:59;6.47;;;3.33;;
26407;SDS011;14583;43.604;1.364;2023-07-31T11:08:28;8.93;;;3.50;;
26407;SDS011;14583;43.604;1.364;2023-07-31T11:13:27;8.45;;;3.20;;
26407;SDS011;14583;43.604;1.364;2023-07-31T11:15:53;8.88;;;3.22;;
26407;SDS011;14583;43.604;1.364;2023-07-31T11:18:19;7.72;;;3.63;;
26407;SDS011;14583;43.604;1.364;2023-07-31T11:20:45;7.78;;;3.38;;
26407;SDS011;14583;43.604;1.364;2023-07-31T11:23:11;8.18;;;3.60;;
26407;SDS011;14583;43.604;1.364;2023-07-31T11:25:39;6.40;;;3.20;;
26407;SDS011;14583;43.604;1.364;2023-07-31T11:28:10;9.55;;;3.47;;
26407;SDS011;14583;43.604;1.364;2023-07-31T11:33:06;9.18;;;3.30;;
26407;SDS011;14583;43.604;1.364;2023-07-31T11:35:32;9.27;;;3.25;;
26407;SDS011;14583;43.604;1.364;2023-07-31T11:38:00;9.10;;;3.97;;
26407;SDS011;14583;43.604;1.364;2023-07-31T11:40:26;6.03;;;3.22;;
26407;SDS011;14583;43.604;1.364;2023-07-31T11:42:56;7.47;;;3.00;;
26407;SDS011;14583;43.604;1.364;2023-07-31T11:45:29;8.38;;;4.20;;
26407;SDS011;14583;43.604;1.364;2023-07-31T11:47:55;6.78;;;3.08;;
26407;SDS011;14583;43.604;1.364;2023-07-31T11:50:22;5.22;;;3.05;;
26407;SDS011;14583;43.604;1.364;2023-07-31T11:52:51;9.68;;;3.85;;
26407;SDS011;14583;43.604;1.364;2023-07-31T11:55:32;8.43;;;3.20;;
26407;SDS011;14583;43.604;1.364;2023-07-31T11:57:58;6.75;;;3.17;;
26407;SDS011;14583;43.604;1.364;2023-07-31T12:00:24;7.38;;;3.55;;
26407;SDS011;14583;43.604;1.364;2023-07-31T12:02:51;5.88;;;3.42;;
26407;SDS011;14583;43.604;1.364;2023-07-31T12:05:17;10.95;;;3.45;;
26407;SDS011;14583;43.604;1.364;2023-07-31T12:07:44;6.55;;;3.47;;
26407;SDS011;14583;43.604;1.364;2023-07-31T12:10:11;7.68;;;3.10;;
26407;SDS011;14583;43.604;1.364;2023-07-31T12:12:55;4.53;;;3.20;;
26407;SDS011;14583;43.604;1.364;2023-07-31T12:17:57;7.25;;;3.53;;
26407;SDS011;14583;43.604;1.364;2023-07-31T12:20:22;6.55;;;3.30;;
26407;SDS011;14583;43.604;1.364;2023-07-31T12:22:48;7.55;;;3.42;;
26407;SDS011;14583;43.604;1.364;2023-07-31T12:25:16;12.77;;;3.58;;
26407;SDS011;14583;43.604;1.364;2023-07-31T12:27:45;5.82;;;2.88;;
26407;SDS011;14583;43.604;1.364;2023-07-31T12:30:27;8.98;;;3.42;;
26407;SDS011;14583;43.604;1.364;2023-07-31T12:32:53;6.60;;;3.40;;
26407;SDS011;14583;43.604;1.364;2023-07-31T12:35:19;6.28;;;3.60;;
26407;SDS011;14583;43.604;1.364;2023-07-31T12:37:45;7.60;;;3.30;;
26407;SDS011;14583;43.604;1.364;2023-07-31T12:40:10;7.22;;;3.47;;
26407;SDS011;14583;43.604;1.364;2023-07-31T12:42:37;5.82;;;3.53;;
26407;SDS011;14583;43.604;1.364;2023-07-31T12:45:03;8.40;;;3.20;;
26407;SDS011;14583;43.604;1.364;2023-07-31T12:47:29;7.72;;;3.20;;
26407;SDS011;14583;43.604;1.364;2023-07-31T12:49:55;6.47;;;3.13;;
26407;SDS011;14583;43.604;1.364;2023-07-31T12:52:20;4.85;;;2.97;;
26407;SDS011;14583;43.604;1.364;2023-07-31T12:54:46;5.97;;;2.95;;
26407;SDS011;14583;43.604;1.364;2023-07-31T12:57:12;9.27;;;3.28;;
26407;SDS011;14583;43.604;1.364;2023-07-31T12:59:37;11.38;;;3.20;;
26407;SDS011;14583;43.604;1.364;2023-07-31T13:02:03;6.72;;;3.30;;
26407;SDS011;14583;43.604;1.364;2023-07-31T13:04:29;5.75;;;2.88;;
26407;SDS011;14583;43.604;1.364;2023-07-31T13:06:55;6.75;;;2.97;;
26407;SDS011;14583;43.604;1.364;2023-07-31T13:09:20;7.43;;;3.10;;
26407;SDS011;14583;43.604;1.364;2023-07-31T13:11:46;6.72;;;2.95;;
26407;SDS011;14583;43.604;1.364;2023-07-31T13:14:12;5.05;;;2.80;;
26407;SDS011;14583;43.604;1.364;2023-07-31T13:16:37;5.05;;;3.08;;
26407;SDS011;14583;43.604;1.364;2023-07-31T13:19:03;5.35;;;3.08;;
26407;SDS011;14583;43.604;1.364;2023-07-31T13:21:29;5.03;;;3.20;;
26407;SDS011;14583;43.604;1.364;2023-07-31T13:23:55;5.93;;;2.92;;
26407;SDS011;14583;43.604;1.364;2023-07-31T13:26:23;6.82;;;2.88;;
26407;SDS011;14583;43.604;1.364;2023-07-31T13:28:48;5.40;;;3.25;;
26407;SDS011;14583;43.604;1.364;2023-07-31T13:31:14;5.50;;;3.00;;
26407;SDS011;14583;43.604;1.364;2023-07-31T13:33:40;5.75;;;3.17;;
26407;SDS011;14583;43.604;1.364;2023-07-31T13:36:05;5.95;;;3.38;;
26407;SDS011;14583;43.604;1.364;2023-07-31T13:38:31;6.97;;;3.17;;
26407;SDS011;14583;43.604;1.364;2023-07-31T13:40:57;7.13;;;2.97;;
26407;SDS011;14583;43.604;1.364;2023-07-31T13:43:22;6.05;;;3.45;;
26407;SDS011;14583;43.604;1.364;2023-07-31T13:45:48;9.13;;;3.58;;
26407;SDS011;14583;43.604;1.364;2023-07-31T13:48:14;4.63;;;3.20;;
26407;SDS011;14583;43.604;1.364;2023-07-31T13:50:39;7.38;;;3.45;;
26407;SDS011;14583;43.604;1.364;2023-07-31T13:53:05;8.52;;;3.70;;
26407;SDS011;14583;43.604;1.364;2023-07-31T13:55:30;11.52;;;3.70;;
26407;SDS011;14583;43.604;1.364;2023-07-31T13:57:59;10.00;;;3.58;;
26407;SDS011;14583;43.604;1.364;2023-07-31T14:00:24;9.68;;;3.80;;
26407;SDS011;14583;43.604;1.364;2023-07-31T14:02:50;8.45;;;3.58;;
26407;SDS011;14583;43.604;1.364;2023-07-31T14:05:16;8.18;;;3.67;;
26407;SDS011;14583;43.604;1.364;2023-07-31T14:07:41;6.43;;;3.60;;
26407;SDS011;14583;43.604;1.364;2023-07-31T14:10:07;6.82;;;4.05;;
26407;SDS011;14583;43.604;1.364;2023-07-31T14:12:33;7.28;;;3.70;;
26407;SDS011;14583;43.604;1.364;2023-07-31T14:14:59;11.65;;;3.55;;
26407;SDS011;14583;43.604;1.364;2023-07-31T14:17:24;11.77;;;4.03;;
26407;SDS011;14583;43.604;1.364;2023-07-31T14:19:50;10.43;;;4.10;;
26407;SDS011;14583;43.604;1.364;2023-07-31T14:22:15;6.63;;;3.67;;
26407;SDS011;14583;43.604;1.364;2023-07-31T14:24:54;7.15;;;3.85;;
26407;SDS011;14583;43.604;1.364;2023-07-31T14:27:23;10.48;;;4.05;;
26407;SDS011;14583;43.604;1.364;2023-07-31T14:29:49;5.38;;;3.90;;
26407;SDS011;14583;43.604;1.364;2023-07-31T14:32:14;7.43;;;3.97;;
26407;SDS011;14583;43.604;1.364;2023-07-31T14:34:40;9.38;;;4.32;;
26407;SDS011;14583;43.604;1.364;2023-07-31T14:37:06;8.05;;;4.18;;
26407;SDS011;14583;43.604;1.364;2023-07-31T14:39:31;8.77;;;4.00;;
26407;SDS011;14583;43.604;1.364;2023-07-31T14:41:57;8.95;;;4.43;;
26407;SDS011;14583;43.604;1.364;2023-07-31T14:44:23;6.68;;;4.15;;
26407;SDS011;14583;43.604;1.364;2023-07-31T14:46:48;7.65;;;4.03;;
26407;SDS011;14583;43.604;1.364;2023-07-31T14:49:14;10.93;;;4.15;;
26407;SDS011;14583;43.604;1.364;2023-07-31T14:51:39;10.77;;;4.15;;
26407;SDS011;14583;43.604;1.364;2023-07-31T14:54:05;7.05;;;4.40;;
26407;SDS011;14583;43.604;1.364;2023-07-31T14:56:31;5.30;;;3.85;;
26407;SDS011;14583;43.604;1.364;2023-07-31T14:58:57;8.02;;;4.57;;
26407;SDS011;14583;43.604;1.364;2023-07-31T15:01:23;8.38;;;4.53;;
26407;SDS011;14583;43.604;1.364;2023-07-31T15:03:49;6.10;;;4.15;;